createdAt,value
2024-01-17T00:00:57.867Z,97735.56
2024-01-17T00:03:28.488Z,97746.97
2024-01-17T00:06:02.450Z,97753.03
2024-01-17T00:08:34.161Z,97743.16
2024-01-17T00:11:07.270Z,97742.97
2024-01-17T00:13:52.251Z,97734.09
2024-01-17T00:16:27.851Z,97731.66
2024-01-17T00:19:06.122Z,97726.81
2024-01-17T00:21:39.589Z,97739.81
2024-01-17T00:24:07.839Z,97742.31
2024-01-17T00:26:42.690Z,97735.13
2024-01-17T00:29:25.264Z,97734.03
2024-01-17T00:31:59.214Z,97749.25
2024-01-17T00:34:40.394Z,97735.69
2024-01-17T00:37:13.848Z,97716.47
2024-01-17T00:39:54.818Z,97715.91
2024-01-17T00:42:29.928Z,97713.56
2024-01-17T00:45:00.863Z,97719.09
2024-01-17T00:47:32.575Z,97714.25
2024-01-17T00:50:03.548Z,97718.81
2024-01-17T00:52:39.299Z,97708.25
2024-01-17T00:55:11.576Z,97698.47
2024-01-17T00:57:48.166Z,97697.13
2024-01-17T01:00:22.832Z,97611.88
2024-01-17T01:02:57.483Z,97701.19
2024-01-17T01:05:30.159Z,97695.22
2024-01-17T01:07:58.975Z,97696.31
2024-01-17T01:10:37.447Z,97698.66
2024-01-17T01:13:06.167Z,97701.38
2024-01-17T01:18:24.600Z,97682.38
2024-01-17T01:20:56.769Z,97677.19
2024-01-17T01:23:35.068Z,97680.25
2024-01-17T01:26:08.871Z,97669.31
2024-01-17T01:28:43.404Z,97680.94
2024-01-17T01:31:14.787Z,97668.72
2024-01-17T01:33:44.232Z,97667.81
2024-01-17T01:36:18.997Z,97671.88
2024-01-17T01:38:49.301Z,97671.44
2024-01-17T01:41:18.723Z,97672.56
2024-01-17T01:43:47.400Z,97658.78
2024-01-17T01:46:38.785Z,97654.97
2024-01-17T01:49:13.413Z,97652.81
2024-01-17T01:51:50.919Z,97645.44
2024-01-17T01:54:37.033Z,97638.91
2024-01-17T01:57:10.919Z,97646.44
2024-01-17T01:59:44.971Z,97644.22
2024-01-17T02:02:15.022Z,97645.91
2024-01-17T02:04:45.395Z,97645.44
2024-01-17T02:07:23.108Z,97668.75
2024-01-17T02:09:54.986Z,97657.66
2024-01-17T02:12:31.107Z,97651.94
2024-01-17T02:15:06.215Z,97643.00
2024-01-17T02:17:40.582Z,97662.88
2024-01-17T02:20:24.271Z,97649.25
2024-01-17T02:22:55.160Z,97640.00
2024-01-17T02:25:25.910Z,97647.88
2024-01-17T02:28:07.821Z,97659.31
2024-01-17T02:30:41.303Z,97651.19
2024-01-17T02:33:18.052Z,97651.50
2024-01-17T02:35:51.309Z,97633.28
2024-01-17T02:38:30.199Z,97642.53
2024-01-17T02:41:02.599Z,97639.19
2024-01-17T02:43:33.687Z,97635.53
2024-01-17T02:46:04.189Z,97630.13
2024-01-17T02:48:39.141Z,97621.22
2024-01-17T02:51:11.318Z,97617.69
2024-01-17T02:53:45.046Z,97602.69
2024-01-17T02:56:18.394Z,97601.91
2024-01-17T02:58:52.063Z,97596.53
2024-01-17T03:01:26.276Z,97598.16
2024-01-17T03:04:04.598Z,97588.91
2024-01-17T03:06:39.897Z,97565.97
2024-01-17T03:09:12.262Z,97562.19
2024-01-17T03:11:43.239Z,97558.31
2024-01-17T03:14:12.927Z,97555.91
2024-01-17T03:16:47.886Z,97553.75
2024-01-17T03:19:17.476Z,97548.81
2024-01-17T03:21:50.570Z,97544.97
2024-01-17T03:24:21.417Z,97537.41
2024-01-17T03:26:56.889Z,97540.66
2024-01-17T03:29:37.753Z,97547.69
2024-01-17T03:32:06.528Z,97545.84
2024-01-17T03:34:35.064Z,97549.66
2024-01-17T03:37:05.435Z,97551.84
2024-01-17T03:39:39.278Z,97544.25
2024-01-17T03:42:07.866Z,97540.97
2024-01-17T03:44:36.627Z,97539.56
2024-01-17T03:49:53.465Z,97533.63
2024-01-17T03:52:25.053Z,97532.50
2024-01-17T03:54:58.890Z,97528.44
2024-01-17T03:57:32.054Z,97521.34
2024-01-17T04:00:01.865Z,97524.09
2024-01-17T04:02:37.385Z,97521.09
2024-01-17T04:05:07.463Z,97513.75
2024-01-17T04:07:36.555Z,97509.38
2024-01-17T04:10:07.639Z,97511.88
2024-01-17T04:12:41.215Z,97508.91
2024-01-17T04:15:13.439Z,97507.00
2024-01-17T04:17:55.435Z,97509.44
2024-01-17T04:20:29.057Z,97502.31
2024-01-17T04:23:09.658Z,97504.75
2024-01-17T04:25:49.145Z,97491.47
2024-01-17T04:28:21.864Z,97486.28
2024-01-17T04:30:55.228Z,97481.41
2024-01-17T04:33:28.216Z,97496.09
2024-01-17T04:36:02.573Z,97501.81
2024-01-17T04:38:32.550Z,97499.34
2024-01-17T04:41:09.700Z,97511.63
2024-01-17T04:43:41.405Z,97508.91
2024-01-17T04:46:16.221Z,97501.53
2024-01-17T04:48:51.728Z,97496.41
2024-01-17T04:51:26.111Z,97503.47
2024-01-17T04:53:56.166Z,97507.81
2024-01-17T04:56:33.166Z,97516.47
2024-01-17T04:59:08.764Z,97517.31
2024-01-17T05:01:46.315Z,97501.53
2024-01-17T05:04:23.847Z,97493.66
2024-01-17T05:07:03.009Z,97487.66
2024-01-17T05:09:34.001Z,97486.56
2024-01-17T05:12:07.770Z,97482.75
2024-01-17T05:14:43.260Z,97472.41
2024-01-17T05:17:16.897Z,97481.41
2024-01-17T05:19:51.919Z,97481.41
2024-01-17T05:22:33.805Z,97483.59
2024-01-17T05:25:04.711Z,97479.50
2024-01-17T05:27:37.866Z,97476.78
2024-01-17T05:30:15.944Z,97481.97
2024-01-17T05:33:00.967Z,97480.06
2024-01-17T05:35:32.416Z,97473.50
2024-01-17T05:38:03.641Z,97486.84
2024-01-17T05:40:34.392Z,97486.59
2024-01-17T05:43:04.339Z,97404.56
2024-01-17T05:45:38.005Z,97467.78
2024-01-17T05:48:14.024Z,97476.78
2024-01-17T05:50:48.646Z,97472.41
2024-01-17T05:53:16.992Z,97472.97
2024-01-17T05:55:53.889Z,97387.94
2024-01-17T05:58:27.138Z,97463.94
2024-01-17T06:01:01.787Z,97471.06
2024-01-17T06:03:31.561Z,97470.22
2024-01-17T06:06:11.287Z,97461.00
2024-01-17T06:08:45.719Z,97462.88
2024-01-17T06:11:18.533Z,97450.63
2024-01-17T06:13:50.372Z,97450.09
2024-01-17T06:16:30.523Z,97452.84
2024-01-17T06:19:08.280Z,97461.28
2024-01-17T06:21:50.477Z,97451.72
2024-01-17T06:24:20.924Z,97449.00
2024-01-17T06:26:55.134Z,97426.44
2024-01-17T06:29:32.059Z,97444.66
2024-01-17T06:32:00.824Z,97434.56
2024-01-17T06:34:34.065Z,97420.16
2024-01-17T06:37:06.932Z,97433.25
2024-01-17T06:39:40.242Z,97438.97
2024-01-17T06:42:08.913Z,97423.72
2024-01-17T06:44:42.477Z,97436.22
2024-01-17T06:47:23.791Z,97431.31
2024-01-17T06:49:55.889Z,97424.53
2024-01-17T06:52:29.855Z,97439.78
2024-01-17T06:55:06.890Z,97427.78
2024-01-17T06:57:38.423Z,97428.34
2024-01-17T07:00:10.127Z,97434.88
2024-01-17T07:02:42.634Z,97437.88
2024-01-17T07:05:19.690Z,97444.13
2024-01-17T07:07:53.284Z,97444.94
2024-01-17T07:10:24.698Z,97433.78
2024-01-17T07:12:58.835Z,97437.84
2024-01-17T07:15:31.409Z,97443.03
2024-01-17T07:18:05.951Z,97442.22
2024-01-17T07:20:38.785Z,97446.03
2024-01-17T07:23:09.724Z,97442.47
2024-01-17T07:25:41.729Z,97431.88
2024-01-17T07:28:12.066Z,97437.03
2024-01-17T07:30:43.905Z,97435.13
2024-01-17T07:33:16.402Z,97430.53
2024-01-17T07:35:49.550Z,97440.56
2024-01-17T07:38:20.577Z,97436.50
2024-01-17T07:40:54.361Z,97427.78
2024-01-17T07:43:38.129Z,97423.44
2024-01-17T07:46:09.452Z,97411.19
2024-01-17T07:48:45.489Z,97414.72
2024-01-17T07:51:16.431Z,97426.13
2024-01-17T07:53:46.309Z,97424.22
2024-01-17T07:56:24.985Z,97420.13
2024-01-17T07:58:58.745Z,97410.59
2024-01-17T08:01:40.298Z,97411.97
2024-01-17T08:04:16.077Z,97405.16
2024-01-17T08:06:49.598Z,97406.50
2024-01-17T08:09:32.285Z,97389.38
2024-01-17T08:12:17.506Z,97392.91
2024-01-17T08:14:50.870Z,97392.38
2024-01-17T08:17:31.634Z,97387.97
2024-01-17T08:20:04.721Z,97391.78
2024-01-17T08:22:40.238Z,97399.72
2024-01-17T08:25:16.015Z,97417.13
2024-01-17T08:27:51.480Z,97405.94
2024-01-17T08:30:25.845Z,97406.22
2024-01-17T08:33:04.492Z,97392.06
2024-01-17T08:35:38.752Z,97394.00
2024-01-17T08:40:59.907Z,97398.34
2024-01-17T08:43:34.064Z,97397.00
2024-01-17T08:46:03.760Z,97388.56
2024-01-17T08:48:32.172Z,97389.38
2024-01-17T08:51:03.833Z,97393.16
2024-01-17T08:53:40.349Z,97392.34
2024-01-17T08:56:18.587Z,97401.09
2024-01-17T08:58:48.247Z,97395.91
2024-01-17T09:01:28.711Z,97383.38
2024-01-17T09:03:59.163Z,97379.28
2024-01-17T09:06:33.931Z,97387.97
2024-01-17T09:09:04.723Z,97387.16
2024-01-17T09:11:35.047Z,97379.25
2024-01-17T09:14:09.584Z,97381.19
2024-01-17T09:16:40.336Z,97378.44
2024-01-17T09:19:09.123Z,97380.91
2024-01-17T09:21:43.046Z,97370.53
2024-01-17T09:24:16.762Z,97368.66
2024-01-17T09:26:51.993Z,97365.94
2024-01-17T09:29:23.754Z,97355.31
2024-01-17T09:31:59.741Z,97360.81
2024-01-17T09:34:30.995Z,97369.22
2024-01-17T09:37:04.901Z,97359.66
2024-01-17T09:39:42.514Z,97368.97
2024-01-17T09:42:22.087Z,97367.28
2024-01-17T09:45:01.758Z,97355.34
2024-01-17T09:47:36.521Z,97355.28
2024-01-17T09:50:21.252Z,97344.38
2024-01-17T09:52:59.196Z,97341.66
2024-01-17T09:55:32.381Z,97330.75
2024-01-17T09:58:03.680Z,97323.06
2024-01-17T10:00:39.560Z,97317.09
2024-01-17T10:03:14.773Z,97309.94
2024-01-17T10:05:44.400Z,97292.19
2024-01-17T10:08:24.009Z,97291.06
2024-01-17T10:10:57.004Z,97276.78
2024-01-17T10:16:16.810Z,97273.09
2024-01-17T10:18:54.037Z,97259.78
2024-01-17T10:21:24.940Z,97261.09
2024-01-17T10:23:58.029Z,97258.72
2024-01-17T10:26:29.458Z,97245.66
2024-01-17T10:28:59.891Z,97236.09
2024-01-17T10:31:37.754Z,97227.13
2024-01-17T10:34:08.478Z,97235.28
2024-01-17T10:37:02.323Z,97217.81
2024-01-17T10:39:34.180Z,97220.88
2024-01-17T10:42:14.304Z,97200.09
2024-01-17T10:44:55.764Z,97187.94
2024-01-17T10:47:25.268Z,97196.81
2024-01-17T10:49:54.170Z,97193.25
2024-01-17T10:52:34.611Z,97189.91
2024-01-17T10:55:19.310Z,97183.00
2024-01-17T10:57:58.716Z,97191.97
2024-01-17T11:00:34.682Z,97177.25
2024-01-17T11:03:15.063Z,97175.88
2024-01-17T11:05:53.676Z,97167.69
2024-01-17T11:08:26.242Z,97162.47
2024-01-17T11:11:00.313Z,97146.72
2024-01-17T11:13:37.821Z,97147.06
2024-01-17T11:16:25.264Z,97140.03
2024-01-17T11:19:09.850Z,97128.41
2024-01-17T11:21:41.177Z,97113.63
2024-01-17T11:24:33.893Z,97103.84
2024-01-17T11:27:10.744Z,97104.66
2024-01-17T11:29:59.784Z,97113.94
2024-01-17T11:32:45.835Z,97097.06
2024-01-17T11:35:37.249Z,97101.34
2024-01-17T11:38:12.869Z,97088.94
2024-01-17T11:40:56.516Z,97092.56
2024-01-17T11:43:30.875Z,97086.88
2024-01-17T11:46:02.087Z,97084.97
2024-01-17T11:48:39.678Z,97085.09
2024-01-17T11:51:25.347Z,97077.19
2024-01-17T11:53:55.068Z,97074.75
2024-01-17T11:56:30.702Z,97073.59
2024-01-17T11:59:08.486Z,97079.84
2024-01-17T12:01:38.738Z,97081.31
2024-01-17T12:04:26.445Z,97071.91
2024-01-17T12:06:59.297Z,97080.97
2024-01-17T12:09:30.907Z,97080.72
2024-01-17T12:12:14.634Z,97081.47
2024-01-17T12:14:46.629Z,97018.94
2024-01-17T12:17:17.999Z,97072.78
2024-01-17T12:19:50.665Z,96981.44
2024-01-17T12:22:24.698Z,97056.34
2024-01-17T12:25:00.546Z,97050.06
2024-01-17T12:27:37.331Z,97046.81
2024-01-17T12:30:12.768Z,97044.09
2024-01-17T12:32:49.523Z,97035.09
2024-01-17T12:35:23.357Z,97040.19
2024-01-17T12:38:01.497Z,97039.06
2024-01-17T12:40:37.717Z,97031.53
2024-01-17T12:43:15.973Z,97021.28
2024-01-17T12:45:59.405Z,97031.84
2024-01-17T12:48:31.717Z,97015.09
2024-01-17T12:51:12.266Z,97016.72
2024-01-17T12:53:47.336Z,97013.63
2024-01-17T12:56:22.971Z,97009.31
2024-01-17T12:59:00.895Z,97004.06
2024-01-17T13:01:36.097Z,96993.28
2024-01-17T13:04:09.883Z,96994.41
2024-01-17T13:06:55.739Z,96982.72
2024-01-17T13:09:37.500Z,96987.09
2024-01-17T13:12:07.880Z,96998.44
2024-01-17T13:14:39.896Z,96983.75
2024-01-17T13:17:20.658Z,96972.81
2024-01-17T13:19:52.039Z,96982.97
2024-01-17T13:22:29.957Z,96982.78
2024-01-17T13:25:00.196Z,96971.44
2024-01-17T13:27:34.174Z,96976.75
2024-01-17T13:30:45.706Z,96976.75
2024-01-17T13:33:22.499Z,96977.47
2024-01-17T13:35:56.669Z,96973.41
2024-01-17T13:38:36.203Z,96979.91
2024-01-17T13:41:09.663Z,96976.31
2024-01-17T13:46:58.968Z,96979.84
2024-01-17T13:49:29.106Z,96976.63
2024-01-17T13:52:07.720Z,96970.34
2024-01-17T13:54:43.058Z,96980.09
2024-01-17T13:57:11.681Z,96972.44
2024-01-17T13:59:45.834Z,96969.41
2024-01-17T14:02:25.245Z,96968.59
2024-01-17T14:05:01.447Z,96959.28
2024-01-17T14:07:32.990Z,96961.06
2024-01-17T14:10:06.328Z,96946.22
2024-01-17T14:12:42.820Z,96946.22
2024-01-17T14:15:13.515Z,96941.47
2024-01-17T14:17:48.029Z,96930.03
2024-01-17T14:20:30.575Z,96922.41
2024-01-17T14:23:04.330Z,96918.22
2024-01-17T14:25:37.868Z,96916.00
2024-01-17T14:28:11.845Z,96912.34
2024-01-17T14:30:40.577Z,96923.00
2024-01-17T14:33:18.407Z,96912.06
2024-01-17T14:38:45.741Z,96906.91
2024-01-17T14:41:18.130Z,96906.41
2024-01-17T14:43:52.145Z,96898.38
2024-01-17T14:46:28.158Z,96898.00
2024-01-17T14:49:00.650Z,96892.09
2024-01-17T14:51:30.229Z,96881.34
2024-01-17T14:54:05.900Z,96886.53
2024-01-17T14:56:37.017Z,96880.66
2024-01-17T14:59:10.559Z,96888.16
2024-01-17T15:01:42.962Z,96886.75
2024-01-17T15:04:18.616Z,96869.84
2024-01-17T15:06:54.703Z,96883.78
2024-01-17T15:09:29.328Z,96867.47
2024-01-17T15:12:00.739Z,96875.13
2024-01-17T15:14:33.969Z,96870.47
2024-01-17T15:17:08.140Z,96868.97
2024-01-17T15:19:48.729Z,96866.09
2024-01-17T15:22:19.021Z,96864.59
2024-01-17T15:24:58.000Z,96865.28
2024-01-17T15:27:39.166Z,96863.25
2024-01-17T15:30:19.330Z,96869.25
2024-01-17T15:33:16.150Z,96869.53
2024-01-17T15:35:54.961Z,96865.69
2024-01-17T15:38:28.693Z,96869.03
2024-01-17T15:41:01.635Z,96868.16
2024-01-17T15:43:35.104Z,96861.31
2024-01-17T15:46:07.042Z,96855.97
2024-01-17T15:48:43.626Z,96857.25
2024-01-17T15:51:16.059Z,96849.88
2024-01-17T15:53:52.568Z,96848.63
2024-01-17T15:56:23.945Z,96775.84
2024-01-17T15:59:01.617Z,96848.19
2024-01-17T16:01:41.719Z,96845.31
2024-01-17T16:04:19.521Z,96846.47
2024-01-17T16:07:04.960Z,96838.47
2024-01-17T16:09:35.747Z,96843.66
2024-01-17T16:12:08.816Z,96845.69
2024-01-17T16:14:44.086Z,96839.63
2024-01-17T16:17:18.951Z,96832.66
2024-01-17T16:19:49.300Z,96831.22
2024-01-17T16:22:23.507Z,96836.47
2024-01-17T16:24:55.166Z,96769.69
2024-01-17T16:27:37.687Z,96831.09
2024-01-17T16:30:07.390Z,96827.38
2024-01-17T16:32:38.350Z,96835.66
2024-01-17T16:35:17.777Z,96835.34
2024-01-17T16:37:50.636Z,96833.41
2024-01-17T16:40:26.137Z,96826.88
2024-01-17T16:42:59.665Z,96829.63
2024-01-17T16:45:33.153Z,96823.13
2024-01-17T16:48:06.428Z,96820.28
2024-01-17T16:50:50.698Z,96813.19
2024-01-17T16:53:31.354Z,96807.97
2024-01-17T16:56:11.146Z,96790.66
2024-01-17T16:58:49.852Z,96783.09
2024-01-17T17:01:21.391Z,96785.00
2024-01-17T17:03:52.215Z,96785.09
2024-01-17T17:06:27.256Z,96790.75
2024-01-17T17:08:57.653Z,96789.75
2024-01-17T17:11:32.376Z,96788.31
2024-01-17T17:14:08.728Z,96787.13
2024-01-17T17:16:49.136Z,96785.56
2024-01-17T17:19:19.338Z,96790.22
2024-01-17T17:21:55.567Z,96778.28
2024-01-17T17:24:30.638Z,96779.63
2024-01-17T17:29:50.078Z,96774.78
2024-01-17T17:32:25.282Z,96779.44
2024-01-17T17:34:54.937Z,96775.59
2024-01-17T17:37:51.355Z,96778.16
2024-01-17T17:40:24.703Z,96770.34
2024-01-17T17:42:56.222Z,96785.97
2024-01-17T17:45:33.803Z,96786.72
2024-01-17T17:48:15.394Z,96777.00
2024-01-17T17:50:48.092Z,96766.44
2024-01-17T17:53:22.284Z,96771.66
2024-01-17T17:56:01.857Z,96762.09
2024-01-17T17:58:31.739Z,96746.38
2024-01-17T18:01:01.638Z,96751.56
2024-01-17T18:06:29.206Z,96737.16
2024-01-17T18:08:59.665Z,96732.50
2024-01-17T18:11:37.123Z,96727.22
2024-01-17T18:14:07.470Z,96733.38
2024-01-17T18:16:38.423Z,96738.72
2024-01-17T18:19:11.392Z,96739.72
2024-01-17T18:21:46.769Z,96731.97
2024-01-17T18:24:22.500Z,96726.75
2024-01-17T18:26:53.086Z,96719.66
2024-01-17T18:29:34.551Z,96726.75
2024-01-17T18:32:06.176Z,96728.59
2024-01-17T18:37:34.285Z,96723.75
2024-01-17T18:40:21.907Z,96727.78
2024-01-17T18:42:56.040Z,96715.09
2024-01-17T18:45:24.150Z,96713.59
2024-01-17T18:47:59.317Z,96710.88
2024-01-17T18:50:38.374Z,96699.78
2024-01-17T18:53:12.164Z,96704.84
2024-01-17T18:55:42.929Z,96710.75
2024-01-17T18:58:14.587Z,96700.59
2024-01-17T19:00:46.675Z,96693.09
2024-01-17T19:03:16.748Z,96696.94
2024-01-17T19:05:53.610Z,96689.97
2024-01-17T19:08:26.338Z,96690.16
2024-01-17T19:11:03.844Z,96685.13
2024-01-17T19:13:40.115Z,96680.81
2024-01-17T19:16:23.528Z,96676.59
2024-01-17T19:19:04.793Z,96681.56
2024-01-17T19:21:49.931Z,96674.97
2024-01-17T19:24:38.278Z,96661.16
2024-01-17T19:27:13.008Z,96673.38
2024-01-17T19:29:48.237Z,96675.78
2024-01-17T19:32:31.267Z,96674.19
2024-01-17T19:35:00.312Z,96673.38
2024-01-17T19:37:43.466Z,96668.53
2024-01-17T19:40:21.176Z,96665.72
2024-01-17T19:43:03.416Z,96678.28
2024-01-17T19:45:42.020Z,96672.38
2024-01-17T19:50:58.579Z,96677.28
2024-01-17T19:53:39.742Z,96661.72
2024-01-17T19:56:09.020Z,96660.34
2024-01-17T19:58:40.398Z,96658.75
2024-01-17T20:01:17.766Z,96657.06
2024-01-17T20:03:57.705Z,96656.19
2024-01-17T20:06:30.598Z,96659.22
2024-01-17T20:09:16.404Z,96661.97
2024-01-17T20:11:45.514Z,96669.81
2024-01-17T20:14:17.811Z,96661.03
2024-01-17T20:16:56.088Z,96579.78
2024-01-17T20:19:31.778Z,96652.22
2024-01-17T20:22:05.623Z,96656.19
2024-01-17T20:24:37.832Z,96635.47
2024-01-17T20:27:15.442Z,96632.16
2024-01-17T20:29:47.991Z,96614.91
2024-01-17T20:32:25.671Z,96621.03
2024-01-17T20:34:59.240Z,96616.97
2024-01-17T20:37:31.286Z,96609.91
2024-01-17T20:40:04.152Z,96612.38
2024-01-17T20:42:47.195Z,96612.81
2024-01-17T20:45:24.348Z,96601.22
2024-01-17T20:47:56.545Z,96618.78
2024-01-17T20:50:27.371Z,96624.78
2024-01-17T20:53:03.056Z,96625.88
2024-01-17T20:55:33.673Z,96602.16
2024-01-17T20:58:03.666Z,96606.09
2024-01-17T21:00:39.569Z,96599.50
2024-01-17T21:03:10.661Z,96598.38
2024-01-17T21:05:46.835Z,96598.00
2024-01-17T21:08:32.766Z,96585.00
2024-01-17T21:11:05.142Z,96589.47
2024-01-17T21:13:42.000Z,96580.81
2024-01-17T21:16:22.330Z,96593.69
2024-01-17T21:18:57.033Z,96580.97
2024-01-17T21:21:43.958Z,96579.84
2024-01-17T21:24:16.968Z,96564.72
2024-01-17T21:26:51.023Z,96558.44
2024-01-17T21:29:20.974Z,96565.94
2024-01-17T21:31:58.594Z,96576.16
2024-01-17T21:34:31.089Z,96576.00
2024-01-17T21:37:13.801Z,96556.50
2024-01-17T21:39:49.643Z,96564.88
2024-01-17T21:42:23.742Z,96553.78
2024-01-17T21:44:56.839Z,96562.63
2024-01-17T21:47:36.316Z,96550.72
2024-01-17T21:50:16.978Z,96475.19
2024-01-17T21:52:49.515Z,96543.78
2024-01-17T21:55:20.187Z,96543.63
2024-01-17T21:57:56.930Z,96538.63
2024-01-17T22:00:31.842Z,96527.03
2024-01-17T22:03:00.924Z,96522.19
2024-01-17T22:05:35.228Z,96522.53
2024-01-17T22:08:10.000Z,96526.25
2024-01-17T22:10:52.915Z,96515.47
2024-01-17T22:13:22.177Z,96510.97
2024-01-17T22:15:58.912Z,96508.56
2024-01-17T22:18:29.257Z,96516.78
2024-01-17T22:20:59.938Z,96508.06
2024-01-17T22:23:31.653Z,96508.88
2024-01-17T22:26:06.605Z,96505.81
2024-01-17T22:28:40.273Z,96498.25
2024-01-17T22:31:33.396Z,96490.03
2024-01-17T22:36:43.669Z,96482.09
2024-01-17T22:39:17.062Z,96480.38
2024-01-17T22:41:54.822Z,96479.41
2024-01-17T22:44:29.650Z,96462.81
2024-01-17T22:47:00.631Z,96464.09
2024-01-17T22:49:33.790Z,96474.41
2024-01-17T22:52:06.700Z,96470.53
2024-01-17T22:54:39.392Z,96460.38
2024-01-17T22:57:14.945Z,96462.16
2024-01-17T22:59:47.223Z,96440.41
2024-01-17T23:02:15.996Z,96465.22
2024-01-17T23:04:52.925Z,96453.44
2024-01-17T23:07:27.599Z,96426.88
2024-01-17T23:10:21.662Z,96421.06
2024-01-17T23:15:41.228Z,96402.72
2024-01-17T23:18:13.246Z,96389.19
2024-01-17T23:20:51.267Z,96388.38
2024-01-17T23:23:22.841Z,96376.75
2024-01-17T23:25:54.574Z,96376.44
2024-01-17T23:31:10.299Z,96378.53
2024-01-17T23:33:42.915Z,96384.66
2024-01-17T23:36:24.775Z,96372.41
2024-01-17T23:38:58.774Z,96361.63
2024-01-17T23:41:31.188Z,96368.22
2024-01-17T23:44:11.256Z,96370.00
2024-01-17T23:46:41.191Z,96366.59
2024-01-17T23:49:12.992Z,96370.97
2024-01-17T23:51:51.064Z,96360.47
2024-01-17T23:54:22.200Z,96362.09
2024-01-17T23:56:53.970Z,96360.31
2024-01-17T23:59:31.046Z,96342.75
